Date,TemperatureHighF,TemperatureAvgF,TemperatureLowF,DewpointHighF,DewpointAvgF,DewpointLowF,HumidityHigh,HumidityAvg,HumidityLow,PressureMaxIn,PressureMinIn,WindSpeedMaxMPH,WindSpeedAvgMPH,GustSpeedMaxMPH,PrecipitationSumIn
2013-10-1,66.2,45.5,40.5,44.6,38.8,35.6,86,77,44,29.95,29.83,7,1,8,0.00
2013-10-2,63.7,46.2,41.2,42.8,37.5,35.6,82,71,44,30.03,29.95,7,2,12,0.00
2013-10-3,66.4,49.6,46.2,48.2,38.3,35.6,68,64,43,30.01,29.83,10,2,11,0.00
2013-10-4,72.5,56.7,54.0,64.4,54.1,50.0,98,89,64,29.92,29.83,8,2,11,0.67
2013-10-5,70.2,57.5,55.2,62.6,55.3,50.0,98,92,53,30.18,29.89,3,0,7,0.00
2013-10-6,66.9,53.6,49.6,60.8,52.6,48.2,98,95,56,30.27,30.18,2,0,4,0.00
2013-10-7,72.1,48.0,44.8,57.2,46.8,44.6,98,94,49,30.27,30.18,3,0,5,0.00
2013-10-8,66.2,54.4,49.5,59.0,53.3,48.2,97,95,69,30.24,30.18,3,0,6,0.00
2013-10-9,61.3,58.0,48.2,57.2,55.6,44.6,97,92,56,30.18,29.80,7,1,10,0.04
2013-10-10,58.1,46.4,44.1,48.2,43.2,39.2,95,88,56,29.80,29.68,9,1,9,0.21
2013-10-11,47.1,44.2,43.2,48.2,43.5,42.8,98,96,94,29.98,29.77,4,0,4,0.66
2013-10-12,46.9,43.3,39.7,48.2,43.4,39.2,98,98,97,30.09,29.95,3,0,3,0.08
2013-10-13,48.2,46.9,44.8,48.2,47.3,44.6,98,98,96,29.89,29.68,14,3,14,2.49
2013-10-14,52.2,48.8,47.5,50.0,48.6,48.2,98,97,89,29.86,29.71,6,1,7,0.09
2013-10-15,53.4,49.3,48.0,51.8,48.8,48.2,98,97,86,29.74,29.65,5,1,7,0.16
2013-10-16,56.1,53.0,50.4,55.4,52.8,48.2,98,96,82,29.92,29.71,6,1,6,0.16
2013-10-17,64.0,55.6,47.3,55.4,52.2,46.4,98,87,55,29.98,29.71,13,3,13,0.00
2013-10-18,55.0,50.2,46.4,55.4,50.3,46.4,98,98,96,30.07,29.92,4,0,6,0.00
2013-10-19,63.3,50.4,48.0,57.2,49.4,48.2,98,95,69,29.95,29.68,7,2,7,0.33
2013-10-20,68.0,58.2,53.4,60.8,55.2,51.8,98,89,62,29.80,29.71,10,1,10,0.00
2013-10-21,64.0,58.0,53.2,57.2,54.9,51.8,97,88,77,29.83,29.74,10,1,10,0.00
2013-10-22,73.9,62.2,55.8,60.8,56.8,53.6,96,83,59,29.74,29.47,9,1,9,0.00
2013-10-23,68.2,60.5,56.5,59.0,55.2,50.0,95,82,59,29.77,29.44,12,2,12,0.04
2013-10-24,67.3,54.0,46.6,53.6,49.3,44.6,97,84,48,30.01,29.77,5,0,5,0.00
2013-10-25,64.6,51.9,49.8,59.0,50.2,48.2,96,93,82,29.98,29.71,8,2,8,0.05
2013-10-26,66.7,58.1,57.0,59.0,55.9,50.0,97,92,60,29.80,29.65,7,1,11,0.00
2013-10-27,60.3,58.0,54.9,55.4,53.1,48.2,96,82,70,29.74,29.42,13,3,20,0.37
2013-10-28,60.8,56.1,51.3,55.4,53.3,42.8,98,89,54,29.59,29.09,17,4,23,0.50
2013-10-29,56.3,49.5,45.5,48.2,46.1,42.8,93,86,67,29.95,29.59,16,3,16,0.08
2013-10-30,57.2,46.8,44.6,48.2,42.7,39.2,92,85,53,30.18,29.92,8,1,11,0.04
2013-10-31,56.1,46.9,45.1,50.0,43.6,42.8,90,87,64,30.18,29.95,7,2,13,0.00